createdAt,value
2023-04-18T00:02:23.399Z,8.10
2023-04-18T00:04:54.569Z,9.70
2023-04-18T00:07:25.520Z,9.60
2023-04-18T00:09:56.362Z,8.70
2023-04-18T00:12:27.013Z,10.30
2023-04-18T00:14:58.615Z,10.00
2023-04-18T00:17:30.495Z,9.30
2023-04-18T00:20:02.286Z,10.20
2023-04-18T00:22:33.733Z,10.20
2023-04-18T00:25:04.767Z,9.70
2023-04-18T00:27:35.519Z,10.00
2023-04-18T00:30:07.372Z,12.00
2023-04-18T00:32:41.380Z,10.20
2023-04-18T00:35:12.412Z,10.20
2023-04-18T00:37:43.055Z,10.80
2023-04-18T00:40:14.824Z,10.00
2023-04-18T00:42:45.634Z,10.40
2023-04-18T00:47:47.319Z,9.30
2023-04-18T00:50:18.056Z,10.70
2023-04-18T00:52:49.842Z,11.20
2023-04-18T00:55:21.428Z,9.70
2023-04-18T00:57:52.934Z,10.60
2023-04-18T01:00:23.993Z,10.60
2023-04-18T01:02:56.010Z,9.80
2023-04-18T01:05:27.473Z,9.00
2023-04-18T01:08:01.151Z,11.20
2023-04-18T01:10:34.354Z,11.40
2023-04-18T01:13:15.934Z,11.30
2023-04-18T01:15:48.189Z,11.70
2023-04-18T01:18:20.892Z,10.80
2023-04-18T01:20:53.275Z,12.00
2023-04-18T01:23:24.070Z,8.30
2023-04-18T01:25:55.024Z,9.00
2023-04-18T01:28:27.729Z,10.60
2023-04-18T01:30:59.696Z,7.80
2023-04-18T01:33:30.560Z,11.00
2023-04-18T01:36:01.176Z,12.80
2023-04-18T01:38:34.608Z,10.70
2023-04-18T01:41:05.401Z,11.00
2023-04-18T01:43:36.119Z,11.60
2023-04-18T01:46:07.635Z,12.70
2023-04-18T01:48:38.881Z,13.20
2023-04-18T01:51:10.269Z,12.10
2023-04-18T01:53:42.304Z,11.50
2023-04-18T01:56:13.065Z,14.80
2023-04-18T01:58:43.852Z,14.50
2023-04-18T02:01:16.320Z,13.90
2023-04-18T02:03:47.189Z,10.20
2023-04-18T02:06:18.057Z,10.80
2023-04-18T02:08:48.757Z,13.60
2023-04-18T02:11:19.360Z,13.60
2023-04-18T02:13:50.029Z,13.00
2023-04-18T02:16:21.008Z,11.70
2023-04-18T02:18:52.830Z,12.80
2023-04-18T02:21:24.349Z,13.10
2023-04-18T02:23:55.035Z,13.40
2023-04-18T02:26:25.818Z,9.50
2023-04-18T02:28:56.460Z,12.90
2023-04-18T02:31:28.036Z,13.30
2023-04-18T02:33:58.986Z,10.60
2023-04-18T02:36:29.669Z,11.70
2023-04-18T02:39:00.405Z,13.30
2023-04-18T02:41:31.211Z,12.20
2023-04-18T02:44:01.895Z,10.30
2023-04-18T02:46:32.619Z,12.50
2023-04-18T02:49:03.522Z,13.10
2023-04-18T02:51:34.483Z,14.50
2023-04-18T02:54:05.564Z,10.90
2023-04-18T02:56:46.640Z,13.70
2023-04-18T02:59:22.480Z,11.50
2023-04-18T03:02:20.953Z,11.10
2023-04-18T03:04:56.705Z,11.10
2023-04-18T03:07:27.979Z,9.70
2023-04-18T03:09:58.598Z,10.30
2023-04-18T03:12:33.083Z,9.90
2023-04-18T03:15:04.242Z,11.00
2023-04-18T03:17:35.353Z,9.70
2023-04-18T03:20:10.410Z,9.10
2023-04-18T03:22:41.194Z,10.80
2023-04-18T03:25:12.910Z,12.10
2023-04-18T03:27:54.059Z,12.30
2023-04-18T03:30:26.469Z,12.10
2023-04-18T03:32:59.529Z,11.00
2023-04-18T03:35:30.259Z,12.50
2023-04-18T03:38:01.109Z,9.30
2023-04-18T03:40:34.091Z,12.10
2023-04-18T03:43:09.274Z,12.30
2023-04-18T03:45:40.228Z,12.10
2023-04-18T03:48:10.940Z,12.00
2023-04-18T03:50:45.129Z,12.30
2023-04-18T03:53:16.000Z,13.30
2023-04-18T03:55:47.097Z,13.40
2023-04-18T03:58:23.647Z,12.10
2023-04-18T04:00:54.746Z,11.90
2023-04-18T04:03:25.719Z,12.60
2023-04-18T04:05:57.084Z,10.30
2023-04-18T04:08:28.391Z,12.70
2023-04-18T04:10:59.374Z,9.90
2023-04-18T04:13:30.358Z,13.50
2023-04-18T04:16:01.677Z,10.60
2023-04-18T04:18:33.277Z,11.90
2023-04-18T04:21:04.512Z,11.50
2023-04-18T04:23:51.999Z,10.70
2023-04-18T04:26:40.223Z,12.90
2023-04-18T04:29:16.207Z,12.00
2023-04-18T04:31:47.916Z,11.40
2023-04-18T04:34:23.917Z,11.20
2023-04-18T04:36:55.598Z,11.40
2023-04-18T04:39:26.631Z,12.10
2023-04-18T04:42:28.526Z,13.20
2023-04-18T04:45:09.453Z,12.00
2023-04-18T04:47:40.249Z,11.70
2023-04-18T04:50:15.543Z,8.10
2023-04-18T04:52:46.261Z,11.90
2023-04-18T04:55:17.572Z,10.50
2023-04-18T04:57:49.036Z,10.80
2023-04-18T05:00:31.020Z,11.50
2023-04-18T05:03:02.261Z,11.10
2023-04-18T05:05:33.201Z,11.20
2023-04-18T05:08:03.963Z,13.70
2023-04-18T05:10:37.222Z,11.70
2023-04-18T05:13:08.012Z,12.30
2023-04-18T05:15:38.812Z,11.20
2023-04-18T05:18:09.875Z,11.10
2023-04-18T05:20:40.597Z,11.10
2023-04-18T05:23:11.494Z,11.70
2023-04-18T05:25:42.190Z,10.10
2023-04-18T05:28:12.873Z,9.90
2023-04-18T05:30:43.886Z,8.70
2023-04-18T05:33:14.477Z,8.50
2023-04-18T05:35:45.290Z,9.80
2023-04-18T05:38:15.927Z,7.80
2023-04-18T05:40:46.574Z,7.90
2023-04-18T05:43:17.335Z,9.00
2023-04-18T05:45:48.160Z,10.10
2023-04-18T05:48:18.936Z,9.50
2023-04-18T05:50:49.754Z,7.90
2023-04-18T05:53:20.412Z,7.40
2023-04-18T05:55:51.250Z,9.10
2023-04-18T05:58:22.017Z,9.10
2023-04-18T06:00:53.710Z,7.20
2023-04-18T06:03:24.646Z,9.10
2023-04-18T06:05:55.855Z,9.20
2023-04-18T06:08:27.102Z,8.10
2023-04-18T06:10:57.783Z,8.70
2023-04-18T06:13:28.501Z,8.30
2023-04-18T06:15:59.609Z,7.90
2023-04-18T06:18:30.465Z,9.70
2023-04-18T06:21:01.213Z,11.50
2023-04-18T06:23:32.122Z,15.40
2023-04-18T06:26:03.417Z,12.10
2023-04-18T06:28:34.694Z,10.60
2023-04-18T06:31:05.853Z,10.50
2023-04-18T06:33:37.752Z,7.40
2023-04-18T06:36:10.279Z,11.20
2023-04-18T06:38:40.967Z,11.60
2023-04-18T06:41:11.624Z,10.50
2023-04-18T06:43:52.130Z,10.00
2023-04-18T06:46:32.982Z,10.10
2023-04-18T06:49:03.870Z,10.70
2023-04-18T06:51:34.759Z,10.00
2023-04-18T06:54:08.412Z,10.90
2023-04-18T06:56:39.254Z,10.90
2023-04-18T06:59:10.174Z,10.10
2023-04-18T07:01:43.638Z,10.40
2023-04-18T07:04:14.852Z,9.20
2023-04-18T07:06:46.177Z,10.10
2023-04-18T07:09:16.878Z,8.20
2023-04-18T07:11:47.461Z,9.10
2023-04-18T07:14:19.881Z,8.00
2023-04-18T07:16:50.908Z,11.00
2023-04-18T07:19:21.718Z,10.00
2023-04-18T07:21:52.431Z,11.10
2023-04-18T07:24:24.382Z,11.00
2023-04-18T07:26:55.605Z,7.90
2023-04-18T07:29:26.359Z,10.40
2023-04-18T07:31:58.027Z,8.50
2023-04-18T07:34:30.026Z,9.90
2023-04-18T07:37:01.158Z,10.30
2023-04-18T07:39:36.056Z,10.20
2023-04-18T07:42:07.759Z,10.70
2023-04-18T07:44:39.312Z,8.20
2023-04-18T07:47:11.248Z,7.80
2023-04-18T07:49:42.018Z,9.30
2023-04-18T07:52:12.861Z,9.90
2023-04-18T07:54:43.601Z,11.00
2023-04-18T07:57:14.219Z,10.60
2023-04-18T07:59:44.929Z,10.30
2023-04-18T08:02:16.289Z,10.00
2023-04-18T08:04:50.037Z,9.40
2023-04-18T08:07:21.169Z,9.50
2023-04-18T08:09:51.950Z,9.60
2023-04-18T08:12:22.734Z,8.60
2023-04-18T08:14:53.387Z,6.80
2023-04-18T08:17:24.990Z,10.60
2023-04-18T08:19:55.739Z,9.20
2023-04-18T08:22:26.387Z,10.50
2023-04-18T08:25:04.288Z,9.50
2023-04-18T08:27:35.652Z,10.70
2023-04-18T08:30:08.019Z,8.40
2023-04-18T08:32:39.819Z,9.60
2023-04-18T08:35:11.601Z,9.20
2023-04-18T08:37:43.246Z,9.20
2023-04-18T08:40:14.305Z,9.00
2023-04-18T08:42:46.101Z,9.00
2023-04-18T08:45:17.049Z,8.30
2023-04-18T08:47:48.089Z,7.50
2023-04-18T08:50:19.770Z,8.90
2023-04-18T08:52:55.469Z,9.90
2023-04-18T08:55:26.156Z,7.80
2023-04-18T08:57:57.600Z,10.30
2023-04-18T09:00:29.302Z,8.80
2023-04-18T09:03:00.427Z,8.70
2023-04-18T09:05:31.096Z,8.20
2023-04-18T09:08:21.930Z,10.00
2023-04-18T09:13:41.115Z,6.20
2023-04-18T09:16:13.403Z,8.70
2023-04-18T09:19:06.796Z,9.20
2023-04-18T09:21:39.274Z,8.80
2023-04-18T09:24:23.998Z,10.10
2023-04-18T09:26:56.861Z,8.20
2023-04-18T09:29:46.530Z,9.80
2023-04-18T09:32:26.819Z,8.40
2023-04-18T09:35:04.063Z,10.40
2023-04-18T09:37:36.275Z,10.20
2023-04-18T09:40:19.585Z,11.50
2023-04-18T09:42:51.639Z,11.30
2023-04-18T09:45:23.508Z,12.00
2023-04-18T09:47:55.916Z,11.20
2023-04-18T09:50:26.758Z,11.10
2023-04-18T09:52:58.347Z,11.60
2023-04-18T09:55:30.094Z,12.40
2023-04-18T09:58:04.822Z,13.50
2023-04-18T10:00:37.737Z,10.80
2023-04-18T10:03:09.993Z,12.00
2023-04-18T10:05:42.518Z,10.80
2023-04-18T10:08:16.053Z,9.40
2023-04-18T10:10:47.647Z,11.10
2023-04-18T10:13:20.725Z,12.20
2023-04-18T10:15:53.463Z,10.70
2023-04-18T10:18:26.487Z,11.00
2023-04-18T10:21:04.883Z,10.70
2023-04-18T10:23:40.234Z,10.90
2023-04-18T10:26:12.033Z,9.60
2023-04-18T10:28:57.154Z,10.30
2023-04-18T10:31:29.934Z,10.50
2023-04-18T10:34:05.682Z,10.50
2023-04-18T10:36:37.036Z,10.60
2023-04-18T10:39:25.639Z,8.90
2023-04-18T10:41:56.331Z,10.90
2023-04-18T10:44:27.700Z,11.20
2023-04-18T10:47:35.946Z,11.60
2023-04-18T10:50:08.160Z,12.30
2023-04-18T10:52:38.798Z,11.80
2023-04-18T10:55:18.516Z,12.00
2023-04-18T10:57:52.000Z,10.80
2023-04-18T11:00:26.089Z,12.70
2023-04-18T11:03:00.204Z,13.00
2023-04-18T11:05:31.896Z,13.80
2023-04-18T11:08:02.602Z,13.60
2023-04-18T11:10:33.508Z,13.10
2023-04-18T11:13:08.105Z,14.20
2023-04-18T11:15:39.894Z,12.30
2023-04-18T11:18:12.168Z,12.10
2023-04-18T11:20:50.244Z,13.40
2023-04-18T11:23:24.869Z,14.80
2023-04-18T11:25:58.513Z,12.20
2023-04-18T11:28:29.778Z,12.40
2023-04-18T11:31:02.834Z,11.60
2023-04-18T11:33:33.570Z,13.10
2023-04-18T11:36:05.951Z,9.80
2023-04-18T11:38:37.006Z,9.60
2023-04-18T11:41:12.984Z,10.60
2023-04-18T11:43:45.626Z,10.00
2023-04-18T11:48:47.710Z,11.00
2023-04-18T11:51:35.765Z,12.20
2023-04-18T11:54:07.108Z,10.80
2023-04-18T11:56:38.040Z,11.60
2023-04-18T11:59:12.744Z,10.30
2023-04-18T12:01:43.800Z,10.70
2023-04-18T12:04:16.810Z,9.90
2023-04-18T12:06:52.938Z,10.90
2023-04-18T12:09:26.121Z,11.10
2023-04-18T12:12:05.346Z,9.90
2023-04-18T12:14:38.306Z,11.70
2023-04-18T12:17:09.134Z,11.40
2023-04-18T12:19:39.929Z,11.70
2023-04-18T12:22:10.788Z,12.20
2023-04-18T12:24:41.833Z,10.40
2023-04-18T12:27:13.129Z,11.40
2023-04-18T12:29:44.085Z,13.00
2023-04-18T12:32:14.706Z,11.50
2023-04-18T12:34:45.399Z,6.70
2023-04-18T12:37:16.312Z,11.50
2023-04-18T12:39:46.915Z,10.10
2023-04-18T12:42:17.697Z,11.40
2023-04-18T12:44:48.719Z,8.50
2023-04-18T12:47:19.585Z,9.30
2023-04-18T12:49:50.383Z,10.40
2023-04-18T12:52:20.991Z,11.70
2023-04-18T12:54:51.719Z,11.50
2023-04-18T12:57:22.405Z,7.60
2023-04-18T12:59:53.124Z,7.20
2023-04-18T13:02:24.016Z,9.50
2023-04-18T13:04:58.469Z,9.90
2023-04-18T13:07:29.307Z,11.50
2023-04-18T13:10:00.371Z,10.50
2023-04-18T13:12:31.344Z,8.90
2023-04-18T13:15:02.173Z,9.80
2023-04-18T13:17:33.702Z,9.90
2023-04-18T13:20:06.642Z,10.50
2023-04-18T13:22:37.796Z,11.80
2023-04-18T13:25:10.703Z,10.50
2023-04-18T13:27:42.753Z,9.40
2023-04-18T13:30:14.588Z,10.30
2023-04-18T13:32:46.212Z,8.80
2023-04-18T13:35:16.931Z,8.40
2023-04-18T13:37:47.841Z,10.30
2023-04-18T13:40:19.439Z,9.30
2023-04-18T13:42:50.179Z,9.90
2023-04-18T13:45:21.693Z,10.30
2023-04-18T13:47:52.368Z,9.00
2023-04-18T13:50:24.718Z,9.90
2023-04-18T13:52:55.467Z,9.90
2023-04-18T13:55:27.133Z,9.10
2023-04-18T13:57:58.614Z,10.30
2023-04-18T14:00:30.385Z,9.90
2023-04-18T14:03:01.513Z,9.90
2023-04-18T14:05:32.564Z,10.60
2023-04-18T14:08:04.054Z,10.90
2023-04-18T14:10:34.788Z,10.10
2023-04-18T14:13:05.424Z,9.20
2023-04-18T14:15:36.008Z,10.10
2023-04-18T14:18:07.019Z,10.10
2023-04-18T14:20:38.805Z,9.70
2023-04-18T14:23:09.713Z,10.40
2023-04-18T14:25:40.476Z,10.40
2023-04-18T14:28:12.871Z,10.00
2023-04-18T14:30:45.322Z,8.50
2023-04-18T14:33:16.020Z,9.20
2023-04-18T14:35:46.837Z,10.20
2023-04-18T14:38:17.617Z,8.10
2023-04-18T14:40:48.372Z,7.60
2023-04-18T14:43:19.034Z,8.10
2023-04-18T14:45:49.944Z,7.50
2023-04-18T14:48:21.242Z,6.30
2023-04-18T14:50:59.125Z,7.70
2023-04-18T14:53:30.012Z,6.50
2023-04-18T14:56:00.823Z,7.10
2023-04-18T14:58:31.617Z,6.50
2023-04-18T15:01:02.395Z,7.60
2023-04-18T15:03:33.387Z,7.40
2023-04-18T15:06:04.522Z,7.60
2023-04-18T15:08:35.313Z,7.20
2023-04-18T15:11:09.894Z,7.50
2023-04-18T15:13:41.350Z,8.70
2023-04-18T15:16:13.034Z,9.10
2023-04-18T15:18:45.037Z,9.60
2023-04-18T15:21:15.749Z,7.50
2023-04-18T15:23:46.727Z,9.60
2023-04-18T15:26:17.350Z,7.90
2023-04-18T15:28:48.186Z,9.40
2023-04-18T15:31:18.905Z,8.60
2023-04-18T15:33:49.714Z,9.20
2023-04-18T15:36:20.490Z,10.80
2023-04-18T15:38:51.266Z,11.00
2023-04-18T15:41:22.181Z,9.80
2023-04-18T15:43:54.925Z,7.10
2023-04-18T15:46:25.647Z,8.40
2023-04-18T15:48:56.888Z,11.30
2023-04-18T15:51:30.673Z,10.10
2023-04-18T15:54:01.448Z,10.80
2023-04-18T15:56:33.548Z,10.70
2023-04-18T15:59:06.958Z,9.30
2023-04-18T16:01:37.790Z,10.50
2023-04-18T16:04:09.057Z,10.20
2023-04-18T16:06:40.621Z,10.40
2023-04-18T16:09:11.270Z,12.60
2023-04-18T16:11:41.960Z,10.60
2023-04-18T16:14:12.733Z,11.70
2023-04-18T16:16:43.700Z,11.90
2023-04-18T16:19:14.394Z,11.10
2023-04-18T16:21:47.071Z,10.90
2023-04-18T16:26:48.083Z,9.90
2023-04-18T16:29:18.747Z,11.20
2023-04-18T16:31:51.622Z,10.10
2023-04-18T16:34:27.202Z,12.10
2023-04-18T16:36:58.047Z,10.50
2023-04-18T16:39:30.382Z,10.00
2023-04-18T16:42:01.182Z,10.40
2023-04-18T16:44:33.265Z,10.60
2023-04-18T16:47:05.155Z,9.80
2023-04-18T16:49:37.521Z,10.00
2023-04-18T16:52:08.286Z,10.70
2023-04-18T16:54:39.025Z,11.10
2023-04-18T16:57:09.712Z,10.00
2023-04-18T16:59:41.730Z,9.80
2023-04-18T17:02:12.952Z,9.90
2023-04-18T17:04:44.186Z,10.00
2023-04-18T17:07:14.915Z,9.40
2023-04-18T17:09:45.684Z,10.20
2023-04-18T17:12:16.405Z,10.30
2023-04-18T17:14:47.342Z,10.40
2023-04-18T17:17:18.170Z,9.90
2023-04-18T17:19:48.990Z,9.90
2023-04-18T17:22:19.797Z,9.40
2023-04-18T17:24:50.679Z,9.70
2023-04-18T17:27:21.453Z,10.60
2023-04-18T17:29:52.257Z,9.90
2023-04-18T17:32:23.664Z,9.00
2023-04-18T17:34:55.822Z,9.60
2023-04-18T17:37:26.573Z,10.40
2023-04-18T17:39:58.833Z,9.30
2023-04-18T17:42:29.805Z,9.80
2023-04-18T17:45:02.474Z,8.60
2023-04-18T17:47:33.749Z,9.70
2023-04-18T17:50:04.763Z,9.70
2023-04-18T17:52:35.471Z,9.20
2023-04-18T17:55:07.717Z,9.20
2023-04-18T17:57:38.588Z,10.80
2023-04-18T18:00:13.542Z,9.80
2023-04-18T18:02:44.380Z,10.80
2023-04-18T18:05:16.572Z,9.80
2023-04-18T18:07:48.258Z,9.60
2023-04-18T18:10:23.272Z,11.50
2023-04-18T18:12:54.294Z,9.80
2023-04-18T18:15:25.485Z,10.40
2023-04-18T18:17:56.575Z,10.30
2023-04-18T18:20:27.922Z,9.10
2023-04-18T18:22:59.801Z,8.60
2023-04-18T18:25:30.870Z,9.20
2023-04-18T18:28:03.404Z,10.30
2023-04-18T18:30:34.888Z,11.00
2023-04-18T18:33:05.907Z,10.00
2023-04-18T18:35:36.672Z,10.20
2023-04-18T18:38:07.449Z,11.50
2023-04-18T18:40:38.207Z,11.50
2023-04-18T18:43:08.836Z,12.60
2023-04-18T18:45:40.266Z,11.20
2023-04-18T18:48:11.659Z,11.60
2023-04-18T18:50:42.526Z,12.70
2023-04-18T18:53:16.897Z,13.20
2023-04-18T18:55:47.814Z,12.80
2023-04-18T18:58:18.456Z,11.20
2023-04-18T19:00:51.146Z,10.40
2023-04-18T19:05:52.592Z,10.50
2023-04-18T19:08:23.494Z,10.30
2023-04-18T19:10:54.279Z,11.70
2023-04-18T19:13:25.302Z,11.40
2023-04-18T19:15:56.113Z,11.50
2023-04-18T19:18:26.978Z,11.40
2023-04-18T19:20:57.904Z,11.50
2023-04-18T19:23:28.758Z,11.90
2023-04-18T19:25:59.565Z,10.90
2023-04-18T19:28:30.844Z,12.40
2023-04-18T19:31:04.365Z,11.30
2023-04-18T19:33:35.378Z,11.20
2023-04-18T19:36:06.790Z,11.80
2023-04-18T19:38:37.704Z,12.20
2023-04-18T19:41:08.478Z,11.10
2023-04-18T19:43:40.850Z,10.90
2023-04-18T19:46:14.710Z,10.80
2023-04-18T19:48:45.548Z,9.10
2023-04-18T19:51:16.370Z,10.80
2023-04-18T19:53:47.055Z,11.80
2023-04-18T19:56:17.929Z,11.00
2023-04-18T19:58:49.184Z,11.80
2023-04-18T20:01:21.387Z,13.00
2023-04-18T20:03:57.697Z,10.20
2023-04-18T20:06:29.371Z,12.30
2023-04-18T20:09:00.361Z,7.40
2023-04-18T20:11:31.060Z,12.30
2023-04-18T20:14:02.308Z,13.10
2023-04-18T20:16:33.434Z,12.90
2023-04-18T20:19:05.772Z,11.40
2023-04-18T20:21:36.600Z,12.30
2023-04-18T20:24:09.649Z,12.10
2023-04-18T20:26:40.312Z,11.80
2023-04-18T20:29:11.232Z,12.20
2023-04-18T20:31:42.881Z,12.50
2023-04-18T20:34:13.649Z,11.20
2023-04-18T20:36:44.259Z,12.30
2023-04-18T20:39:15.601Z,11.50
2023-04-18T20:41:51.240Z,11.30
2023-04-18T20:44:22.305Z,12.20
2023-04-18T20:46:54.253Z,12.10
2023-04-18T20:49:24.970Z,12.20
2023-04-18T20:51:55.556Z,12.30
2023-04-18T20:54:26.494Z,12.50
2023-04-18T20:56:57.200Z,12.40
2023-04-18T20:59:28.112Z,13.10
2023-04-18T21:01:58.807Z,12.00
2023-04-18T21:04:29.744Z,11.80
2023-04-18T21:07:00.579Z,12.20
2023-04-18T21:09:36.457Z,12.10
2023-04-18T21:12:08.054Z,11.80
2023-04-18T21:14:39.822Z,12.50
2023-04-18T21:17:10.808Z,11.50
2023-04-18T21:19:41.492Z,11.00
2023-04-18T21:22:12.250Z,11.50
2023-04-18T21:24:42.944Z,11.70
2023-04-18T21:27:15.881Z,11.70
2023-04-18T21:29:46.679Z,11.30
2023-04-18T21:32:17.314Z,12.40
2023-04-18T21:34:47.925Z,10.30
2023-04-18T21:37:18.667Z,10.70
2023-04-18T21:39:49.279Z,12.10
2023-04-18T21:42:19.957Z,12.00
2023-04-18T21:44:50.771Z,12.30
2023-04-18T21:47:21.349Z,12.00
2023-04-18T21:49:52.228Z,11.40
2023-04-18T21:52:22.891Z,10.90
2023-04-18T21:54:53.537Z,11.70
2023-04-18T21:57:24.339Z,10.80
2023-04-18T21:59:55.629Z,10.70
2023-04-18T22:02:26.349Z,11.10
2023-04-18T22:04:57.123Z,11.50
2023-04-18T22:07:29.534Z,10.60
2023-04-18T22:10:00.243Z,11.40
2023-04-18T22:12:32.231Z,10.90
2023-04-18T22:15:04.195Z,10.80
2023-04-18T22:17:37.063Z,10.40
2023-04-18T22:20:11.322Z,10.90
2023-04-18T22:22:41.917Z,13.10
2023-04-18T22:25:13.100Z,11.40
2023-04-18T22:27:45.143Z,11.10
2023-04-18T22:30:17.171Z,11.40
2023-04-18T22:32:47.955Z,11.50
2023-04-18T22:35:18.925Z,9.30
2023-04-18T22:37:49.610Z,11.30
2023-04-18T22:40:20.621Z,11.30
2023-04-18T22:42:52.329Z,10.80
2023-04-18T22:45:23.062Z,11.70
2023-04-18T22:47:53.730Z,10.80
2023-04-18T22:50:24.617Z,10.10
2023-04-18T22:52:55.344Z,11.30
2023-04-18T22:55:26.424Z,10.00
2023-04-18T22:57:57.144Z,10.40
2023-04-18T23:00:27.931Z,11.30
2023-04-18T23:02:58.706Z,10.80
2023-04-18T23:05:29.855Z,10.90
2023-04-18T23:08:00.788Z,10.20
2023-04-18T23:10:31.429Z,10.60
2023-04-18T23:13:02.337Z,9.70
2023-04-18T23:15:33.393Z,10.90
2023-04-18T23:18:04.376Z,10.00
2023-04-18T23:20:36.360Z,11.60
2023-04-18T23:23:07.042Z,11.30
2023-04-18T23:25:41.710Z,10.70
2023-04-18T23:28:13.639Z,9.50
2023-04-18T23:30:44.309Z,8.30
2023-04-18T23:33:14.896Z,7.20
2023-04-18T23:35:45.533Z,7.00
2023-04-18T23:38:16.225Z,7.50
2023-04-18T23:40:46.923Z,8.00
2023-04-18T23:43:17.628Z,7.00
2023-04-18T23:45:48.352Z,8.30
2023-04-18T23:48:18.991Z,6.40
2023-04-18T23:50:50.844Z,6.10
2023-04-18T23:53:21.822Z,5.60
2023-04-18T23:55:52.457Z,5.90
2023-04-18T23:58:23.132Z,5.40
